Погода Жиличина неделю

Брестская область, Белоруссия

19 - 25 июля
  • 19июля
    Сегодня
    +13°
    +26°
    Ясно и безоблачно
    ВремяПогодаТемператураВлажностьДавлениеВетер, м/сВероятность осадков
    00:00Ясно и безоблачно+19°C65 %751 мм2.3 м/с2 %
    03:00Практически безоблачно+17°C75 %751 мм2.5 м/с2 %
    06:00Ясно и безоблачно+16°C83 %751 мм3.0 м/с2 %
    09:00Ясно и безоблачно+19°C70 %751 мм2.5 м/с2 %
    12:00Ясно и безоблачно+22°C47 %751 мм3.4 м/с2 %
    15:00Ясно и безоблачно+25°C40 %750 мм4.4 м/с2 %
    18:00Ясно и безоблачно+26°C44 %749 мм4.4 м/с2 %
    21:00Ясно и безоблачно+23°C55 %748 мм2.5 м/с2 %
  • 20июля
    Суббота
    +14°
    +26°
    Практически безоблачно
    ВремяПогодаТемператураВлажностьДавлениеВетер, м/сВероятность осадков
    00:00Ясно и безоблачно+18°C68 %748 мм2.3 м/с2 %
    03:00Ясно и безоблачно+16°C73 %748 мм2.7 м/с2 %
    06:00Ясно и безоблачно+14°C88 %747 мм1.5 м/с2 %
    09:00Ясно и безоблачно+18°C65 %747 мм1.7 м/с2 %
    12:00Небольшая облачность+22°C42 %747 мм3.1 м/с2 %
    15:00Практически безоблачно+25°C35 %746 мм2.6 м/с2 %
    18:00Ясно и безоблачно+26°C35 %745 мм2.3 м/с2 %
    21:00Ясно и безоблачно+23°C59 %744 мм1.7 м/с2 %
  • 21июля
    Воскресенье
    +16°
    +28°
    Практически безоблачно
    ВремяПогодаТемператураВлажностьДавлениеВетер, м/сВероятность осадков
    00:00Практически безоблачно+20°C60 %744 мм1.6 м/с2 %
    03:00Облачно с прояснениями+16°C77 %744 мм2.4 м/с2 %
    06:00Ясно и безоблачно+15°C86 %743 мм1.9 м/с2 %
    09:00Ясно и безоблачно+20°C60 %744 мм1.0 м/с2 %
    12:00Ясно и безоблачно+25°C41 %743 мм0.3 м/с2 %
    15:00Практически безоблачно+27°C34 %743 мм1.2 м/с5 %
    18:00Практически безоблачно+28°C32 %742 мм2.1 м/с2 %
    21:00Облачно с прояснениями+25°C48 %742 мм1.6 м/с2 %
  • 22июля
    Понедельник
    +17°
    +30°
    Практически безоблачно
    ВремяПогодаТемператураВлажностьДавлениеВетер, м/сВероятность осадков
    00:00Ясно и безоблачно+22°C51 %742 мм3.0 м/с2 %
    03:00Ясно и безоблачно+18°C69 %742 мм1.8 м/с2 %
    06:00Практически безоблачно+17°C76 %742 мм1.9 м/с2 %
    09:00Облачно с прояснениями+21°C61 %743 мм0.8 м/с2 %
    12:00Практически безоблачно+27°C38 %743 мм1.4 м/с5 %
    15:00Практически безоблачно+28°C34 %743 мм1.1 м/с11 %
    18:00Практически безоблачно+29°C34 %743 мм1.1 м/с9 %
    21:00Ясно и безоблачно+27°C45 %743 мм0.9 м/с10 %
  • 23июля
    Вторник
    +16°
    +28°
    Облачно с прояснениями
    ВремяПогодаТемператураВлажностьДавлениеВетер, м/сВероятность осадков
    00:00Ясно и безоблачно+23°C56 %743 мм2.7 м/с8 %
    03:00Ясно и безоблачно+20°C67 %743 мм1.9 м/с13 %
    06:00Практически безоблачно+18°C75 %743 мм1.6 м/с20 %
    09:00Облачно с прояснениями+21°C63 %744 мм1.9 м/с20 %
    12:00Облачно с прояснениями+26°C48 %744 мм3.1 м/с25 %
    15:00Облачно с прояснениями+27°C47 %744 мм4.0 м/с36 %
    18:00Облачно с прояснениями+26°C62 %744 мм4.7 м/с37 %
    21:00Небольшая облачность+23°C72 %744 мм3.7 м/с20 %
Мы используем cookies
Соглашаюсь